Time,TemperatureF,DewpointF,PressureIn,WindDirection,WindDirectionDegrees,WindSpeedMPH,WindSpeedGustMPH,Humidity,HourlyPrecipIn,Conditions,Clouds,dailyrainin,SoftwareType,DateUTC
2013-06-07 00:00:00,68.3,64.3,29.77,SSW,202,0.0,2.0,87,0.00,,SKC,0.00,VWS V14.01,2013-06-07 04:00:00,
2013-06-07 00:30:00,68.1,64.1,29.76,SSW,202,0.0,4.0,87,0.00,,SKC,0.00,VWS V14.01,2013-06-07 04:30:00,
2013-06-07 01:00:00,67.8,64.1,29.75,SW,225,0.0,3.0,88,0.00,,SKC,0.00,VWS V14.01,2013-06-07 05:00:00,
2013-06-07 01:30:00,67.5,63.8,29.74,South,180,0.0,1.0,88,0.00,,SKC,0.00,VWS V14.01,2013-06-07 05:30:00,
2013-06-07 02:00:00,66.9,63.6,29.73,South,180,0.0,0.0,89,0.00,,SKC,0.00,VWS V14.01,2013-06-07 06:00:00,
2013-06-07 02:30:00,66.5,63.5,29.72,South,180,0.0,0.0,90,0.00,,SKC,0.00,VWS V14.01,2013-06-07 06:30:00,
2013-06-07 03:00:00,66.0,63.6,29.71,South,180,0.0,0.0,92,0.00,,SKC,0.00,VWS V14.01,2013-06-07 07:00:00,
2013-06-07 03:30:00,65.8,63.7,29.70,South,180,0.0,0.0,93,0.00,,SKC,0.00,VWS V14.01,2013-06-07 07:30:00,
2013-06-07 04:00:00,65.8,64.3,29.69,South,180,0.0,0.0,95,0.00,,SKC,0.00,VWS V14.01,2013-06-07 08:00:00,
2013-06-07 04:30:00,65.6,64.4,29.68,South,180,0.0,0.0,96,0.01,,SKC,0.01,VWS V14.01,2013-06-07 08:30:00,
2013-06-07 05:00:00,65.5,64.6,29.67,SSW,202,0.0,1.0,97,0.01,,SKC,0.01,VWS V14.01,2013-06-07 09:00:00,
2013-06-07 05:30:00,65.2,64.3,29.68,SSW,202,0.0,0.0,97,0.01,,SKC,0.01,VWS V14.01,2013-06-07 09:30:00,
2013-06-07 06:00:00,65.1,64.2,29.67,SSW,202,0.0,1.0,97,0.00,,SKC,0.01,VWS V14.01,2013-06-07 10:00:00,
2013-06-07 06:30:00,65.0,64.4,29.67,SSW,202,0.0,2.0,98,0.01,,SKC,0.02,VWS V14.01,2013-06-07 10:30:00,
2013-06-07 07:00:00,64.9,64.3,29.68,NNE,22,1.0,3.0,98,0.01,,SKC,0.02,VWS V14.01,2013-06-07 11:00:00,
2013-06-07 07:30:00,64.9,64.3,29.68,ENE,68,0.0,2.0,98,0.01,,SKC,0.02,VWS V14.01,2013-06-07 11:30:00,
2013-06-07 08:00:00,65.2,64.6,29.68,East,90,0.0,1.0,98,0.00,,SKC,0.00,VWS V14.01,2013-06-07 12:00:00,
2013-06-07 08:15:00,64.9,64.3,29.68,ENE,68,0.0,2.0,98,0.01,,SKC,0.02,VWS V14.01,2013-06-07 12:15:00,
2013-06-07 08:20:00,65.6,65.0,29.68,NNW,338,0.0,1.0,98,0.00,,SKC,0.02,VWS V14.01,2013-06-07 12:20:00,
2013-06-07 08:25:00,65.7,65.1,29.68,North,349,1.0,1.0,98,0.00,,SKC,0.02,VWS V14.01,2013-06-07 12:25:00,
2013-06-07 08:30:00,65.6,65.0,29.68,NNW,342,0.0,2.0,98,0.00,,SKC,0.02,VWS V14.01,2013-06-07 12:30:00,
2013-06-07 08:35:00,65.6,65.0,29.68,North,4,1.0,2.0,98,0.00,,SKC,0.02,VWS V14.01,2013-06-07 12:35:00,
2013-06-07 08:40:00,65.7,65.1,29.68,NE,39,1.0,2.0,98,0.01,,SKC,0.03,VWS V14.01,2013-06-07 12:40:00,
2013-06-07 08:45:00,65.8,65.2,29.68,NNW,343,2.0,2.0,98,0.01,,SKC,0.03,VWS V14.01,2013-06-07 12:45:00,
2013-06-07 08:50:00,65.7,64.8,29.68,NNW,338,1.0,2.0,97,0.01,,SKC,0.03,VWS V14.01,2013-06-07 12:50:00,
2013-06-07 08:55:00,65.8,65.2,29.68,North,8,2.0,3.0,98,0.02,,SKC,0.04,VWS V14.01,2013-06-07 12:55:00,
2013-06-07 09:00:00,65.6,64.7,29.69,North,357,2.0,2.0,97,0.04,,SKC,0.04,VWS V14.01,2013-06-07 13:00:00,
2013-06-07 09:05:00,65.7,64.8,29.69,NNE,19,0.0,3.0,97,0.05,,SKC,0.05,VWS V14.01,2013-06-07 13:05:00,
2013-06-07 09:10:00,65.7,65.1,29.68,NNW,341,0.0,3.0,98,0.05,,SKC,0.05,VWS V14.01,2013-06-07 13:10:00,
2013-06-07 09:15:00,65.9,65.3,29.68,NNW,341,1.0,3.0,98,0.05,,SKC,0.05,VWS V14.01,2013-06-07 13:15:00,
2013-06-07 09:20:00,66.0,65.4,29.69,NNW,340,1.0,3.0,98,0.05,,SKC,0.05,VWS V14.01,2013-06-07 13:20:00,
2013-06-07 09:25:00,66.0,65.1,29.69,NNW,336,1.0,3.0,97,0.05,,SKC,0.05,VWS V14.01,2013-06-07 13:25:00,
2013-06-07 09:30:00,66.0,65.4,29.69,NNE,29,2.0,3.0,98,0.05,,SKC,0.05,VWS V14.01,2013-06-07 13:30:00,
2013-06-07 09:31:00,66.0,65.4,29.69,NNE,29,2.0,3.0,98,0.05,,SKC,0.05,VWS V14.01,2013-06-07 13:31:00,
2013-06-07 09:35:00,66.0,65.1,29.69,NNW,348,2.0,3.0,97,0.02,,SKC,0.06,VWS V14.01,2013-06-07 13:35:00,
2013-06-07 09:40:00,66.0,65.1,29.69,NNE,30,1.0,3.0,97,0.03,,SKC,0.07,VWS V14.01,2013-06-07 13:40:00,
2013-06-07 09:45:00,66.1,65.2,29.69,North,6,4.0,4.0,97,0.03,,SKC,0.07,VWS V14.01,2013-06-07 13:45:00,
2013-06-07 09:50:00,66.0,65.1,29.69,NNE,23,1.0,4.0,97,0.03,,SKC,0.07,VWS V14.01,2013-06-07 13:50:00,
2013-06-07 09:55:00,66.2,65.3,29.69,North,8,2.0,4.0,97,0.04,,SKC,0.08,VWS V14.01,2013-06-07 13:55:00,
2013-06-07 10:00:00,65.7,64.8,29.69,North,357,2.0,3.0,97,0.02,,SKC,0.04,VWS V14.01,2013-06-07 14:00:00,
2013-06-07 10:04:00,66.5,65.6,29.69,NE,34,5.0,5.0,97,0.00,,SKC,0.08,VWS V14.01,2013-06-07 14:04:00,
2013-06-07 10:09:00,66.7,65.8,29.69,NNW,334,2.0,6.0,97,0.04,,SKC,0.08,VWS V14.01,2013-06-07 14:09:00,
2013-06-07 10:14:00,66.8,65.9,29.69,NNW,338,3.0,6.0,97,0.04,,SKC,0.08,VWS V14.01,2013-06-07 14:14:00,
2013-06-07 10:28:00,67.4,66.5,29.69,NW,314,1.0,1.0,97,0.00,,SKC,0.08,VWS V14.01,2013-06-07 14:28:00,
2013-06-07 10:30:00,67.6,66.7,29.68,NW,318,3.0,3.0,97,0.04,,SKC,0.08,VWS V14.01,2013-06-07 14:30:00,
2013-06-07 10:31:00,66.0,65.4,29.69,NNE,29,2.0,3.0,98,0.05,,SKC,0.05,VWS V14.01,2013-06-07 14:31:00,
2013-06-07 10:33:00,67.7,66.5,29.69,NNW,328,4.0,8.0,96,0.03,,SKC,0.08,VWS V14.01,2013-06-07 14:33:00,
2013-06-07 10:38:00,67.9,66.4,29.69,NNW,329,3.0,8.0,95,0.03,,SKC,0.08,VWS V14.01,2013-06-07 14:38:00,
2013-06-07 10:43:00,68.1,66.6,29.69,NNW,346,4.0,8.0,95,0.03,,SKC,0.08,VWS V14.01,2013-06-07 14:43:00,
2013-06-07 10:48:00,68.0,66.2,29.69,NNE,24,5.0,8.0,94,0.03,,SKC,0.08,VWS V14.01,2013-06-07 14:48:00,
2013-06-07 10:53:00,68.0,66.2,29.69,North,6,5.0,8.0,94,0.03,,SKC,0.08,VWS V14.01,2013-06-07 14:53:00,
2013-06-07 10:58:00,68.1,66.3,29.69,NNW,347,3.0,8.0,94,0.03,,SKC,0.08,VWS V14.01,2013-06-07 14:58:00,
2013-06-07 11:00:00,68.1,66.3,29.69,NW,319,3.0,8.0,94,0.03,,SKC,0.08,VWS V14.01,2013-06-07 15:00:00,
2013-06-07 11:03:00,68.2,66.4,29.69,North,4,5.0,6.0,94,0.00,,SKC,0.08,VWS V14.01,2013-06-07 15:03:00,
2013-06-07 11:08:00,68.1,66.3,29.69,North,359,3.0,7.0,94,0.00,,SKC,0.08,VWS V14.01,2013-06-07 15:08:00,
2013-06-07 11:13:00,68.1,66.3,29.69,NNW,330,2.0,7.0,94,0.00,,SKC,0.08,VWS V14.01,2013-06-07 15:13:00,
2013-06-07 11:18:00,68.1,66.3,29.69,NW,322,1.0,7.0,94,0.00,,SKC,0.08,VWS V14.01,2013-06-07 15:18:00,
2013-06-07 11:23:00,68.2,66.7,29.69,North,349,3.0,7.0,95,0.00,,SKC,0.08,VWS V14.01,2013-06-07 15:23:00,
2013-06-07 11:28:00,68.4,66.9,29.69,West,279,2.0,7.0,95,0.00,,SKC,0.08,VWS V14.01,2013-06-07 15:28:00,
2013-06-07 11:30:00,68.4,66.6,29.69,NNW,331,4.0,7.0,94,0.00,,SKC,0.08,VWS V14.01,2013-06-07 15:30:00,
2013-06-07 11:33:00,68.6,66.8,29.69,North,353,2.0,6.0,94,0.00,,SKC,0.08,VWS V14.01,2013-06-07 15:33:00,
2013-06-07 11:38:00,68.9,67.4,29.69,West,264,9.0,9.0,95,0.00,,SKC,0.08,VWS V14.01,2013-06-07 15:38:00,
2013-06-07 11:43:00,69.1,67.3,29.69,WNW,293,2.0,9.0,94,0.00,,SKC,0.08,VWS V14.01,2013-06-07 15:43:00,
2013-06-07 11:48:00,69.2,67.4,29.69,North,355,1.0,9.0,94,0.00,,SKC,0.08,VWS V14.01,2013-06-07 15:48:00,
2013-06-07 11:53:00,69.4,67.0,29.70,West,260,2.0,9.0,92,0.00,,SKC,0.08,VWS V14.01,2013-06-07 15:53:00,
2013-06-07 11:58:00,69.6,66.9,29.70,NW,321,4.0,9.0,91,0.00,,SKC,0.08,VWS V14.01,2013-06-07 15:58:00,
2013-06-07 12:00:00,69.7,67.0,29.70,NW,317,6.0,9.0,91,0.00,,SKC,0.08,VWS V14.01,2013-06-07 16:00:00,
2013-06-07 12:03:00,69.8,67.1,29.70,NNE,30,1.0,6.0,91,0.00,,SKC,0.08,VWS V14.01,2013-06-07 16:03:00,
2013-06-07 12:08:00,70.1,67.0,29.70,NW,311,2.0,7.0,90,0.00,,SKC,0.08,VWS V14.01,2013-06-07 16:08:00,
2013-06-07 12:13:00,70.7,67.3,29.70,NNW,331,3.0,7.0,89,0.00,,SKC,0.08,VWS V14.01,2013-06-07 16:13:00,
2013-06-07 12:18:00,71.0,67.3,29.70,WNW,285,8.0,8.0,88,0.00,,SKC,0.08,VWS V14.01,2013-06-07 16:18:00,
2013-06-07 12:23:00,71.1,67.0,29.70,NNW,340,7.0,9.0,87,0.00,,SKC,0.08,VWS V14.01,2013-06-07 16:23:00,
2013-06-07 12:28:00,71.2,67.1,29.70,NNE,20,3.0,9.0,87,0.00,,SKC,0.08,VWS V14.01,2013-06-07 16:28:00,
2013-06-07 12:30:00,71.3,67.2,29.70,North,355,4.0,9.0,87,0.00,,SKC,0.08,VWS V14.01,2013-06-07 16:30:00,
2013-06-07 12:33:00,71.6,66.9,29.70,WNW,293,4.0,13.0,85,0.00,,SKC,0.08,VWS V14.01,2013-06-07 16:33:00,
2013-06-07 12:38:00,71.7,66.9,29.70,NNW,331,3.0,13.0,85,0.00,,SKC,0.08,VWS V14.01,2013-06-07 16:38:00,
2013-06-07 12:43:00,72.3,67.9,29.70,WSW,256,1.0,13.0,86,0.00,,SKC,0.08,VWS V14.01,2013-06-07 16:43:00,
2013-06-07 12:48:00,72.4,67.3,29.70,North,349,3.0,13.0,84,0.00,,SKC,0.08,VWS V14.01,2013-06-07 16:48:00,
2013-06-07 12:53:00,72.3,66.8,29.70,NNW,345,5.0,13.0,83,0.00,,SKC,0.08,VWS V14.01,2013-06-07 16:53:00,
2013-06-07 12:58:00,72.2,66.8,29.70,East,91,0.0,13.0,83,0.00,,SKC,0.08,VWS V14.01,2013-06-07 16:58:00,
2013-06-07 13:00:00,72.4,67.3,29.70,West,280,4.0,13.0,84,0.00,,SKC,0.08,VWS V14.01,2013-06-07 17:00:00,
2013-06-07 13:03:00,72.6,67.5,29.70,NW,310,6.0,6.0,84,0.00,,SKC,0.08,VWS V14.01,2013-06-07 17:03:00,
2013-06-07 13:08:00,72.7,66.5,29.70,WNW,294,6.0,7.0,81,0.00,,SKC,0.08,VWS V14.01,2013-06-07 17:08:00,
2013-06-07 13:13:00,72.5,66.0,29.70,North,350,6.0,9.0,80,0.00,,SKC,0.08,VWS V14.01,2013-06-07 17:13:00,
2013-06-07 13:18:00,72.6,66.4,29.70,North,3,4.0,11.0,81,0.00,,SKC,0.08,VWS V14.01,2013-06-07 17:18:00,
2013-06-07 13:23:00,72.8,66.3,29.70,NW,318,4.0,11.0,80,0.00,,SKC,0.08,VWS V14.01,2013-06-07 17:23:00,
2013-06-07 13:28:00,73.3,66.8,29.70,NNW,340,7.0,11.0,80,0.00,,SKC,0.08,VWS V14.01,2013-06-07 17:28:00,
2013-06-07 13:30:00,73.3,66.0,29.70,WNW,294,3.0,11.0,78,0.00,,SKC,0.08,VWS V14.01,2013-06-07 17:30:00,
2013-06-07 13:33:00,73.6,66.7,29.70,WNW,302,3.0,7.0,79,0.00,,SKC,0.08,VWS V14.01,2013-06-07 17:33:00,
2013-06-07 13:38:00,73.9,66.2,29.70,NNW,345,2.0,9.0,77,0.00,,SKC,0.08,VWS V14.01,2013-06-07 17:38:00,
2013-06-07 13:43:00,74.0,67.4,29.70,West,267,1.0,9.0,80,0.00,,SKC,0.08,VWS V14.01,2013-06-07 17:43:00,
2013-06-07 13:48:00,74.6,66.5,29.70,WNW,293,2.0,9.0,76,0.00,,SKC,0.08,VWS V14.01,2013-06-07 17:48:00,
2013-06-07 13:53:00,74.9,67.2,29.70,North,1,3.0,9.0,77,0.00,,SKC,0.08,VWS V14.01,2013-06-07 17:53:00,
2013-06-07 13:58:00,75.3,66.4,29.70,NNW,340,4.0,9.0,74,0.00,,SKC,0.08,VWS V14.01,2013-06-07 17:58:00,
2013-06-07 14:00:00,75.3,67.2,29.70,WNW,300,7.0,10.0,76,0.00,,SKC,0.08,VWS V14.01,2013-06-07 18:00:00,
2013-06-07 14:04:00,75.3,66.4,29.70,WNW,293,4.0,9.0,74,0.00,,SKC,0.08,VWS V14.01,2013-06-07 18:04:00,
2013-06-07 14:09:00,75.3,66.8,29.69,NNW,340,4.0,9.0,75,0.00,,SKC,0.08,VWS V14.01,2013-06-07 18:09:00,
2013-06-07 14:14:00,75.1,67.0,29.70,NW,318,2.0,9.0,76,0.00,,SKC,0.08,VWS V14.01,2013-06-07 18:14:00,
2013-06-07 14:20:00,75.3,67.6,29.69,SW,224,4.0,10.0,77,0.00,,SKC,0.08,VWS V14.01,2013-06-07 18:20:00,
2013-06-07 14:25:00,75.6,65.9,29.69,NNE,27,6.0,11.0,72,0.00,,SKC,0.08,VWS V14.01,2013-06-07 18:25:00,
2013-06-07 14:30:00,75.4,66.5,29.69,NNW,347,7.0,12.0,74,0.00,,SKC,0.08,VWS V14.01,2013-06-07 18:30:00,
2013-06-07 14:35:00,75.7,66.8,29.69,NNW,327,7.0,14.0,74,0.00,,SKC,0.08,VWS V14.01,2013-06-07 18:35:00,
2013-06-07 14:40:00,75.6,65.9,29.69,WNW,288,5.0,14.0,72,0.00,,SKC,0.08,VWS V14.01,2013-06-07 18:40:00,
2013-06-07 14:45:00,75.3,65.7,29.69,NNE,18,6.0,14.0,72,0.00,,SKC,0.08,VWS V14.01,2013-06-07 18:45:00,
2013-06-07 14:50:00,75.7,66.4,29.69,NW,312,3.0,14.0,73,0.00,,SKC,0.08,VWS V14.01,2013-06-07 18:50:00,
2013-06-07 14:55:00,76.1,65.6,29.69,NNW,338,4.0,14.0,70,0.00,,SKC,0.08,VWS V14.01,2013-06-07 18:55:00,
2013-06-07 15:00:00,76.5,65.6,29.69,NNE,18,4.0,4.0,69,0.00,,SKC,0.08,VWS V14.01,2013-06-07 19:00:00,
2013-06-07 15:05:00,76.5,66.4,29.69,NNE,20,5.0,12.0,71,0.00,,SKC,0.08,VWS V14.01,2013-06-07 19:05:00,
2013-06-07 15:10:00,76.7,65.8,29.69,North,3,6.0,12.0,69,0.00,,SKC,0.08,VWS V14.01,2013-06-07 19:10:00,
2013-06-07 15:15:00,76.8,65.9,29.68,SW,214,3.0,12.0,69,0.00,,SKC,0.08,VWS V14.01,2013-06-07 19:15:00,
2013-06-07 15:20:00,76.8,65.0,29.68,NNE,13,4.0,12.0,67,0.00,,SKC,0.08,VWS V14.01,2013-06-07 19:20:00,
2013-06-07 15:26:00,77.0,66.1,29.68,NE,43,4.0,12.0,69,0.00,,SKC,0.08,VWS V14.01,2013-06-07 19:26:00,
2013-06-07 15:30:00,76.7,65.3,29.68,NNW,340,7.0,12.0,68,0.00,,SKC,0.08,VWS V14.01,2013-06-07 19:30:00,
2013-06-07 15:31:00,76.6,64.8,29.68,NE,47,5.0,8.0,67,0.00,,SKC,0.08,VWS V14.01,2013-06-07 19:31:00,
2013-06-07 15:37:00,76.7,66.2,29.68,NNW,345,6.0,9.0,70,0.00,,SKC,0.08,VWS V14.01,2013-06-07 19:37:00,
2013-06-07 15:42:00,77.3,66.3,29.68,NNE,20,4.0,9.0,69,0.00,,SKC,0.08,VWS V14.01,2013-06-07 19:42:00,
2013-06-07 15:47:00,77.7,66.3,29.68,SW,229,3.0,9.0,68,0.00,,SKC,0.08,VWS V14.01,2013-06-07 19:47:00,
2013-06-07 15:53:00,77.7,65.9,29.68,WNW,287,1.0,9.0,67,0.00,,SKC,0.08,VWS V14.01,2013-06-07 19:53:00,
2013-06-07 15:58:00,78.3,66.4,29.68,NNE,31,2.0,9.0,67,0.00,,SKC,0.08,VWS V14.01,2013-06-07 19:58:00,
2013-06-07 16:00:00,78.4,67.4,29.68,NNW,340,5.0,9.0,69,0.00,,SKC,0.08,VWS V14.01,2013-06-07 20:00:00,
2013-06-07 16:30:00,77.8,66.4,29.68,NNW,338,5.0,15.0,68,0.00,,SKC,0.08,VWS V14.01,2013-06-07 20:30:00,
2013-06-07 17:00:00,77.2,65.8,29.69,NNW,338,5.0,14.0,68,0.00,,SKC,0.08,VWS V14.01,2013-06-07 21:00:00,
2013-06-07 17:30:00,77.8,66.4,29.68,NNW,338,5.0,15.0,68,0.00,,SKC,0.08,VWS V14.01,2013-06-07 21:30:00,
2013-06-07 17:50:00,77.2,65.8,29.69,NNW,338,5.0,14.0,68,0.00,,SKC,0.08,VWS V14.01,2013-06-07 21:50:00,
2013-06-07 17:55:00,75.9,66.2,29.70,NNW,340,4.0,10.0,72,0.00,,SKC,0.08,VWS V14.01,2013-06-07 21:55:00,
2013-06-07 18:00:00,76.2,65.7,29.71,ENE,61,2.0,10.0,70,0.00,,SKC,0.08,VWS V14.01,2013-06-07 22:00:00,
2013-06-07 18:05:00,76.7,65.3,29.70,NE,53,6.0,12.0,68,0.00,,SKC,0.08,VWS V14.01,2013-06-07 22:05:00,
2013-06-07 18:10:00,76.8,65.4,29.70,ENE,58,7.0,9.0,68,0.00,,SKC,0.08,VWS V14.01,2013-06-07 22:10:00,
2013-06-07 18:15:00,76.2,65.3,29.70,NNW,330,5.0,9.0,69,0.00,,SKC,0.08,VWS V14.01,2013-06-07 22:15:00,
2013-06-07 18:20:00,75.8,64.9,29.70,NNW,341,3.0,9.0,69,0.00,,SKC,0.08,VWS V14.01,2013-06-07 22:20:00,
2013-06-07 18:25:00,75.4,65.3,29.70,NNE,32,8.0,9.0,71,0.00,,SKC,0.08,VWS V14.01,2013-06-07 22:25:00,
2013-06-07 18:30:00,75.0,65.4,29.70,NNE,32,5.0,8.0,72,0.00,,SKC,0.08,VWS V14.01,2013-06-07 22:30:00,
2013-06-07 18:35:00,74.8,65.2,29.70,NNW,338,2.0,8.0,72,0.00,,SKC,0.08,VWS V14.01,2013-06-07 22:35:00,
2013-06-07 18:40:00,74.6,65.0,29.70,NE,50,4.0,8.0,72,0.00,,SKC,0.08,VWS V14.01,2013-06-07 22:40:00,
2013-06-07 18:45:00,74.4,65.2,29.70,ENE,76,2.0,8.0,73,0.00,,SKC,0.08,VWS V14.01,2013-06-07 22:45:00,
2013-06-07 18:50:00,74.2,65.0,29.70,North,354,4.0,8.0,73,0.00,,SKC,0.08,VWS V14.01,2013-06-07 22:50:00,
2013-06-07 18:55:00,74.1,65.3,29.71,NNE,29,4.0,8.0,74,0.00,,SKC,0.08,VWS V14.01,2013-06-07 22:55:00,
2013-06-07 19:00:00,74.0,65.2,29.71,ENE,63,3.0,3.0,74,0.00,,SKC,0.08,VWS V14.01,2013-06-07 23:00:00,
2013-06-07 19:05:00,73.8,65.4,29.71,NNW,338,2.0,4.0,75,0.00,,SKC,0.08,VWS V14.01,2013-06-07 23:05:00,
2013-06-07 19:10:00,73.6,65.2,29.72,NE,53,3.0,5.0,75,0.00,,SKC,0.08,VWS V14.01,2013-06-07 23:10:00,
2013-06-07 19:15:00,73.4,65.0,29.72,North,350,2.0,6.0,75,0.00,,SKC,0.08,VWS V14.01,2013-06-07 23:15:00,
2013-06-07 19:20:00,73.2,65.2,29.72,NNE,16,3.0,6.0,76,0.00,,SKC,0.08,VWS V14.01,2013-06-07 23:20:00,
2013-06-07 19:25:00,73.0,65.0,29.72,NNE,13,4.0,6.0,76,0.00,,SKC,0.08,VWS V14.01,2013-06-07 23:25:00,
2013-06-07 19:30:00,72.8,65.2,29.72,North,358,1.0,2.0,77,0.00,,SKC,0.08,VWS V14.01,2013-06-07 23:30:00,
2013-06-07 19:36:00,72.7,65.1,29.72,NNW,345,1.0,4.0,77,0.00,,SKC,0.08,VWS V14.01,2013-06-07 23:36:00,
2013-06-07 19:41:00,72.5,65.3,29.73,NNE,13,0.0,4.0,78,0.00,,SKC,0.08,VWS V14.01,2013-06-07 23:41:00,
2013-06-07 19:46:00,72.4,65.2,29.74,NNE,13,0.0,4.0,78,0.00,,SKC,0.08,VWS V14.01,2013-06-07 23:46:00,
2013-06-07 19:51:00,72.3,65.1,29.75,NNE,13,0.0,4.0,78,0.00,,SKC,0.08,VWS V14.01,2013-06-07 23:51:00,
2013-06-07 19:56:00,72.2,65.3,29.74,NNE,13,0.0,4.0,79,0.00,,SKC,0.08,VWS V14.01,2013-06-07 23:56:00,
2013-06-07 20:00:00,72.0,66.2,29.74,NNE,13,0.0,4.0,82,0.00,,SKC,0.08,VWS V14.01,2013-06-08 00:00:00,
2013-06-07 20:01:00,71.9,66.1,29.75,NNE,13,0.0,0.0,82,0.00,,SKC,0.08,VWS V14.01,2013-06-08 00:01:00,
2013-06-07 20:06:00,71.4,66.3,29.75,NNE,13,0.0,0.0,84,0.00,,SKC,0.08,VWS V14.01,2013-06-08 00:06:00,
2013-06-07 20:11:00,70.7,66.3,29.77,SSW,205,2.0,10.0,86,0.00,,SKC,0.08,VWS V14.01,2013-06-08 00:11:00,
2013-06-07 20:16:00,68.0,62.7,29.77,North,1,4.0,13.0,83,0.09,,SKC,0.17,VWS V14.01,2013-06-08 00:16:00,
2013-06-07 20:21:00,66.1,61.1,29.77,East,84,3.0,13.0,84,0.27,,SKC,0.35,VWS V14.01,2013-06-08 00:21:00,
2013-06-07 20:26:00,65.2,60.9,29.77,WSW,255,1.0,13.0,86,0.34,,SKC,0.42,VWS V14.01,2013-06-08 00:26:00,
2013-06-07 20:30:00,64.8,61.5,29.77,ESE,104,0.0,13.0,89,0.37,,SKC,0.45,VWS V14.01,2013-06-08 00:30:00,
2013-06-07 20:31:00,64.5,61.2,29.77,ESE,108,0.0,2.0,89,0.38,,SKC,0.46,VWS V14.01,2013-06-08 00:31:00,
2013-06-07 20:37:00,63.9,60.9,29.77,SSW,197,1.0,2.0,90,0.42,,SKC,0.50,VWS V14.01,2013-06-08 00:37:00,
2013-06-07 20:42:00,63.5,61.1,29.78,South,170,0.0,3.0,92,0.43,,SKC,0.51,VWS V14.01,2013-06-08 00:42:00,
2013-06-07 20:47:00,63.2,61.2,29.78,SE,136,0.0,3.0,93,0.50,,SKC,0.58,VWS V14.01,2013-06-08 00:47:00,
2013-06-07 20:52:00,62.9,60.5,29.78,South,191,2.0,3.0,92,0.51,,SKC,0.59,VWS V14.01,2013-06-08 00:52:00,
2013-06-07 20:57:00,62.7,60.7,29.79,SSW,198,1.0,3.0,93,0.51,,SKC,0.59,VWS V14.01,2013-06-08 00:57:00,
2013-06-07 21:00:00,62.7,60.7,29.79,ENE,70,0.0,3.0,93,0.52,,SKC,0.60,VWS V14.01,2013-06-08 01:00:00,
2013-06-07 21:02:00,62.7,60.7,29.79,SSE,166,0.0,2.0,93,0.53,,SKC,0.61,VWS V14.01,2013-06-08 01:02:00,
2013-06-07 21:07:00,62.6,60.8,29.79,SSW,208,0.0,2.0,94,0.57,,SKC,0.65,VWS V14.01,2013-06-08 01:07:00,
2013-06-07 21:12:00,62.4,60.7,29.80,SSE,165,0.0,2.0,94,0.57,,SKC,0.65,VWS V14.01,2013-06-08 01:12:00,
2013-06-07 21:17:00,62.2,60.5,29.80,South,174,0.0,2.0,94,0.57,,SKC,0.65,VWS V14.01,2013-06-08 01:17:00,
2013-06-07 21:22:00,62.1,60.4,29.79,SSW,203,0.0,3.0,94,0.57,,SKC,0.65,VWS V14.01,2013-06-08 01:22:00,
2013-06-07 21:27:00,62.0,60.3,29.79,South,181,1.0,5.0,94,0.57,,SKC,0.65,VWS V14.01,2013-06-08 01:27:00,
2013-06-07 21:30:00,62.0,60.3,29.79,SSE,165,1.0,5.0,94,0.57,,SKC,0.65,VWS V14.01,2013-06-08 01:30:00,
2013-06-07 21:32:00,61.9,60.2,29.79,ESE,119,1.0,2.0,94,0.20,,SKC,0.65,VWS V14.01,2013-06-08 01:32:00,
2013-06-07 21:37:00,61.8,60.4,29.80,South,169,1.0,3.0,95,0.20,,SKC,0.65,VWS V14.01,2013-06-08 01:37:00,
2013-06-07 21:42:00,61.8,60.4,29.80,NNE,16,1.0,4.0,95,0.20,,SKC,0.65,VWS V14.01,2013-06-08 01:42:00,
2013-06-07 21:47:00,61.8,60.4,29.80,NE,55,1.0,4.0,95,0.20,,SKC,0.65,VWS V14.01,2013-06-08 01:47:00,
2013-06-07 21:53:00,61.8,60.4,29.81,North,356,1.0,4.0,95,0.20,,SKC,0.65,VWS V14.01,2013-06-08 01:53:00,
2013-06-07 21:58:00,61.8,60.7,29.81,East,88,0.0,4.0,96,0.20,,SKC,0.65,VWS V14.01,2013-06-08 01:58:00,
2013-06-07 22:00:00,62.0,60.8,29.82,East,88,0.0,4.0,96,0.20,,SKC,0.65,VWS V14.01,2013-06-08 02:00:00,
2013-06-07 22:03:00,62.0,60.8,29.82,East,88,2.0,2.0,96,0.05,,SKC,0.65,VWS V14.01,2013-06-08 02:03:00,
2013-06-07 22:08:00,62.2,61.0,29.81,East,84,0.0,3.0,96,0.05,,SKC,0.65,VWS V14.01,2013-06-08 02:08:00,
2013-06-07 22:13:00,62.5,61.6,29.82,East,84,0.0,3.0,97,0.05,,SKC,0.65,VWS V14.01,2013-06-08 02:13:00,
2013-06-07 22:18:00,62.6,61.7,29.82,East,84,0.0,3.0,97,0.05,,SKC,0.65,VWS V14.01,2013-06-08 02:18:00,
2013-06-07 22:23:00,62.7,61.8,29.82,East,84,0.0,3.0,97,0.05,,SKC,0.65,VWS V14.01,2013-06-08 02:23:00,
2013-06-07 22:28:00,62.6,61.7,29.82,South,176,1.0,3.0,97,0.05,,SKC,0.65,VWS V14.01,2013-06-08 02:28:00,
2013-06-07 22:30:00,62.6,61.7,29.82,South,176,1.0,3.0,97,0.05,,SKC,0.65,VWS V14.01,2013-06-08 02:30:00,
2013-06-07 22:33:00,62.6,61.7,29.82,South,176,0.0,1.0,97,0.00,,SKC,0.65,VWS V14.01,2013-06-08 02:33:00,
2013-06-07 22:38:00,62.5,61.6,29.82,South,176,1.0,1.0,97,0.00,,SKC,0.65,VWS V14.01,2013-06-08 02:38:00,
2013-06-07 22:43:00,62.5,61.6,29.82,South,176,0.0,1.0,97,0.00,,SKC,0.65,VWS V14.01,2013-06-08 02:43:00,
2013-06-07 22:48:00,62.5,61.6,29.82,South,176,1.0,1.0,97,0.00,,SKC,0.65,VWS V14.01,2013-06-08 02:48:00,
2013-06-07 22:53:00,62.3,61.4,29.82,South,176,0.0,1.0,97,0.00,,SKC,0.65,VWS V14.01,2013-06-08 02:53:00,
2013-06-07 22:58:00,62.3,61.4,29.82,South,176,0.0,1.0,97,0.00,,SKC,0.65,VWS V14.01,2013-06-08 02:58:00,
2013-06-07 23:00:00,62.2,61.3,29.83,South,176,0.0,1.0,97,0.00,,SKC,0.65,VWS V14.01,2013-06-08 03:00:00,
2013-06-07 23:03:00,62.2,61.3,29.83,South,176,0.0,1.0,97,0.00,,SKC,0.65,VWS V14.01,2013-06-08 03:03:00,
2013-06-07 23:08:00,62.2,61.3,29.82,WNW,282,0.0,1.0,97,0.00,,SKC,0.65,VWS V14.01,2013-06-08 03:08:00,
2013-06-07 23:13:00,62.2,61.3,29.82,SW,221,0.0,2.0,97,0.00,,SKC,0.65,VWS V14.01,2013-06-08 03:13:00,
2013-06-07 23:18:00,62.1,61.2,29.83,SW,215,0.0,3.0,97,0.00,,SKC,0.65,VWS V14.01,2013-06-08 03:18:00,
2013-06-07 23:23:00,62.1,61.2,29.83,SW,215,0.0,3.0,97,0.00,,SKC,0.65,VWS V14.01,2013-06-08 03:23:00,
2013-06-07 23:28:00,62.1,61.2,29.83,SW,215,0.0,3.0,97,0.00,,SKC,0.65,VWS V14.01,2013-06-08 03:28:00,
2013-06-07 23:30:00,62.1,61.2,29.83,SW,215,0.0,3.0,97,0.00,,SKC,0.65,VWS V14.01,2013-06-08 03:30:00,
2013-06-07 23:33:00,62.1,61.2,29.83,SW,215,0.0,0.0,97,0.00,,SKC,0.65,VWS V14.01,2013-06-08 03:33:00,
2013-06-07 23:38:00,62.1,61.2,29.83,SW,215,0.0,0.0,97,0.00,,SKC,0.65,VWS V14.01,2013-06-08 03:38:00,
2013-06-07 23:43:00,62.1,61.2,29.83,SW,215,0.0,0.0,97,0.00,,SKC,0.65,VWS V14.01,2013-06-08 03:43:00,
2013-06-07 23:48:00,62.2,61.3,29.83,SW,215,0.0,1.0,97,0.00,,SKC,0.65,VWS V14.01,2013-06-08 03:48:00,
2013-06-07 23:53:00,62.2,61.3,29.83,SW,215,0.0,1.0,97,0.00,,SKC,0.65,VWS V14.01,2013-06-08 03:53:00,
2013-06-07 23:58:00,62.2,61.3,29.83,SW,215,0.0,1.0,97,0.00,,SKC,0.65,VWS V14.01,2013-06-08 03:58:00,